Ty Woods — WDB5332 — position and weather

sailwx.info

Track history (hours):
 
Tides and Currents Weather Stations Pressure Air Temp Water Temp Dewpoint Dewpoint Depression Visibility Wind Speed Wind Dir Waves Ship Positions

Ty Woods

Owner: San Diego Towing & Marine Services,Inc., San Diego, CA. More information available from US FCC via Universal Licensing System and Coast Guard Vessel Documentation Center.

Last reported at 2016-Aug-15 19:33 UTC. Time now 2016-Aug-25 06:18 UTC.
Position N 32°42' W 117°09'.
Warning: this ship's position is 9 days out of date.

; draft 2 m.

Type: Ship. MMSI: 366908460.

Date/timePositionNaut miles runAvg speedWind from/ knotsBaromVisibWave heightAir tempDewpointWater temp
2016-Aug-15 19:33N 32°42' W 117°09'0 0.1
2016-Aug-15 18:33N 32°42' W 117°09'0 0.0
2016-Aug-15 17:33N 32°42' W 117°09'0 0.0
2016-Aug-15 16:33N 32°42' W 117°09'0 0.0
2016-Aug-15 15:33N 32°42' W 117°09'  
2016-Aug-12 18:33N 32°42' W 117°09'10 9.5
2016-Aug-12 17:32N 32°35' W 117°18'3 3.3
2016-Aug-12 16:30N 32°38' W 117°20'1 1.4
2016-Aug-12 15:33N 32°38' W 117°18'7 6.8
2016-Aug-12 14:33N 32°43' W 117°12'1 0.0
2016-Aug-10 23:33N 32°42' W 117°13'1 0.5
2016-Aug-10 22:30N 32°42' W 117°14'4 4.2
2016-Aug-10 21:33N 32°39' W 117°17'1717.1
2016-Aug-10 20:33N 32°45' W 117°36'1717.5
2016-Aug-10 19:33N 32°50' W 117°55'8 1.8
2016-Aug-10 15:11N 32°48' W 117°46'1015.9
2016-Aug-10 14:33N 32°45' W 117°35'12 0.7
2016-Aug-09 21:33N 32°41' W 117°22'1818.3
2016-Aug-09 20:33N 32°48' W 117°42'1817.9
2016-Aug-09 19:31N 32°53' W 118°03'7 2.0
2016-Aug-09 16:09N 32°51' W 117°55'1118.0
2016-Aug-09 15:34N 32°48' W 117°43'1817.9
2016-Aug-09 14:34N 32°42' W 117°23'8 0.5
2016-Aug-08 22:19N 32°41' W 117°14'1013.7
2016-Aug-08 21:33N 32°41' W 117°26'1818.4
2016-Aug-08 20:34N 32°47' W 117°47'1918.3
2016-Aug-08 19:30N 32°54' W 118°08'1413.8
2016-Aug-08 18:29N 32°59' W 118°24'2611.1
2016-Aug-08 16:09N 32°51' W 117°54'1117.7
2016-Aug-08 15:34N 32°47' W 117°43'1817.7
2016-Aug-08 14:34N 32°42' W 117°23'  
Track history (hours):
 
Tides and Currents Weather Stations Pressure Air Temp Water Temp Dewpoint Dewpoint Depression Visibility Wind Speed Wind Dir Waves Ship Positions

Ty Woods

Owner: San Diego Towing & Marine Services,Inc., San Diego, CA. More information available from US FCC via Universal Licensing System and Coast Guard Vessel Documentation Center.

Last reported at 2016-Aug-15 19:33 UTC. Time now 2016-Aug-25 06:18 UTC.
Position N 32°42' W 117°09'.
Warning: this ship's position is 9 days out of date.

; draft 2 m.

Type: Ship. MMSI: 366908460.

Date/timePositionNaut miles runAvg speedWind from/ knotsBaromVisibWave heightAir tempDewpointWater temp
2016-Aug-15 19:33N 32°42' W 117°09'0 0.1
2016-Aug-15 18:33N 32°42' W 117°09'0 0.0
2016-Aug-15 17:33N 32°42' W 117°09'0 0.0
2016-Aug-15 16:33N 32°42' W 117°09'0 0.0
2016-Aug-15 15:33N 32°42' W 117°09'  
2016-Aug-12 18:33N 32°42' W 117°09'10 9.5
2016-Aug-12 17:32N 32°35' W 117°18'3 3.3
2016-Aug-12 16:30N 32°38' W 117°20'1 1.4
2016-Aug-12 15:33N 32°38' W 117°18'7 6.8
2016-Aug-12 14:33N 32°43' W 117°12'1 0.0
2016-Aug-10 23:33N 32°42' W 117°13'1 0.5
2016-Aug-10 22:30N 32°42' W 117°14'4 4.2
2016-Aug-10 21:33N 32°39' W 117°17'1717.1
2016-Aug-10 20:33N 32°45' W 117°36'1717.5
2016-Aug-10 19:33N 32°50' W 117°55'8 1.8
2016-Aug-10 15:11N 32°48' W 117°46'1015.9
2016-Aug-10 14:33N 32°45' W 117°35'12 0.7
2016-Aug-09 21:33N 32°41' W 117°22'1818.3
2016-Aug-09 20:33N 32°48' W 117°42'1817.9
2016-Aug-09 19:31N 32°53' W 118°03'7 2.0
2016-Aug-09 16:09N 32°51' W 117°55'1118.0
2016-Aug-09 15:34N 32°48' W 117°43'1817.9
2016-Aug-09 14:34N 32°42' W 117°23'8 0.5
2016-Aug-08 22:19N 32°41' W 117°14'1013.7
2016-Aug-08 21:33N 32°41' W 117°26'1818.4
2016-Aug-08 20:34N 32°47' W 117°47'1918.3
2016-Aug-08 19:30N 32°54' W 118°08'1413.8
2016-Aug-08 18:29N 32°59' W 118°24'2611.1
2016-Aug-08 16:09N 32°51' W 117°54'1117.7
2016-Aug-08 15:34N 32°47' W 117°43'1817.7
2016-Aug-08 14:34N 32°42' W 117°23'  

Dump ship's entire track history